sensor_id;sensor_type;location;lat;lon;timestamp;P1;durP1;ratioP1;P2;durP2;ratioP2
10657;SDS011;5377;43.276;26.930;2024-03-22T00:00:08;7.63;;;6.20;;
10657;SDS011;5377;43.276;26.930;2024-03-22T00:02:38;7.33;;;6.33;;
10657;SDS011;5377;43.276;26.930;2024-03-22T00:05:04;7.13;;;5.07;;
10657;SDS011;5377;43.276;26.930;2024-03-22T00:07:30;6.90;;;6.10;;
10657;SDS011;5377;43.276;26.930;2024-03-22T00:09:57;6.83;;;5.90;;
10657;SDS011;5377;43.276;26.930;2024-03-22T00:12:22;8.27;;;6.60;;
10657;SDS011;5377;43.276;26.930;2024-03-22T00:14:49;7.03;;;5.80;;
10657;SDS011;5377;43.276;26.930;2024-03-22T00:17:16;5.63;;;5.13;;
10657;SDS011;5377;43.276;26.930;2024-03-22T00:19:44;6.57;;;5.67;;
10657;SDS011;5377;43.276;26.930;2024-03-22T00:22:10;5.57;;;4.93;;
10657;SDS011;5377;43.276;26.930;2024-03-22T00:24:36;6.27;;;5.40;;
10657;SDS011;5377;43.276;26.930;2024-03-22T00:27:02;6.10;;;5.47;;
10657;SDS011;5377;43.276;26.930;2024-03-22T00:29:30;4.57;;;4.17;;
10657;SDS011;5377;43.276;26.930;2024-03-22T00:31:56;5.07;;;4.60;;
10657;SDS011;5377;43.276;26.930;2024-03-22T00:34:22;4.70;;;4.23;;
10657;SDS011;5377;43.276;26.930;2024-03-22T00:36:49;4.60;;;4.20;;
10657;SDS011;5377;43.276;26.930;2024-03-22T00:39:16;4.73;;;4.17;;
10657;SDS011;5377;43.276;26.930;2024-03-22T00:41:42;6.03;;;4.70;;
10657;SDS011;5377;43.276;26.930;2024-03-22T00:44:09;6.33;;;5.13;;
10657;SDS011;5377;43.276;26.930;2024-03-22T00:46:34;6.20;;;5.07;;
10657;SDS011;5377;43.276;26.930;2024-03-22T00:49:02;6.90;;;5.03;;
10657;SDS011;5377;43.276;26.930;2024-03-22T00:51:27;4.60;;;4.20;;
10657;SDS011;5377;43.276;26.930;2024-03-22T00:53:56;6.93;;;4.43;;
10657;SDS011;5377;43.276;26.930;2024-03-22T00:56:21;6.00;;;5.00;;
10657;SDS011;5377;43.276;26.930;2024-03-22T00:58:48;5.23;;;4.73;;
10657;SDS011;5377;43.276;26.930;2024-03-22T01:01:14;5.47;;;4.63;;
10657;SDS011;5377;43.276;26.930;2024-03-22T01:03:40;5.20;;;4.70;;
10657;SDS011;5377;43.276;26.930;2024-03-22T01:06:06;5.00;;;4.57;;
10657;SDS011;5377;43.276;26.930;2024-03-22T01:08:33;6.20;;;4.77;;
10657;SDS011;5377;43.276;26.930;2024-03-22T01:11:00;7.13;;;5.33;;
10657;SDS011;5377;43.276;26.930;2024-03-22T01:13:27;9.80;;;6.87;;
10657;SDS011;5377;43.276;26.930;2024-03-22T01:15:53;9.03;;;5.93;;
10657;SDS011;5377;43.276;26.930;2024-03-22T01:18:19;6.70;;;5.90;;
10657;SDS011;5377;43.276;26.930;2024-03-22T01:20:45;7.33;;;5.93;;
10657;SDS011;5377;43.276;26.930;2024-03-22T01:23:12;7.30;;;6.33;;
10657;SDS011;5377;43.276;26.930;2024-03-22T01:25:37;7.70;;;6.17;;
10657;SDS011;5377;43.276;26.930;2024-03-22T01:28:06;7.13;;;6.30;;
10657;SDS011;5377;43.276;26.930;2024-03-22T01:30:32;8.20;;;6.93;;
10657;SDS011;5377;43.276;26.930;2024-03-22T01:32:59;8.80;;;7.03;;
10657;SDS011;5377;43.276;26.930;2024-03-22T01:35:25;7.90;;;7.03;;
10657;SDS011;5377;43.276;26.930;2024-03-22T01:37:51;12.37;;;8.30;;
10657;SDS011;5377;43.276;26.930;2024-03-22T01:40:17;10.30;;;8.17;;
10657;SDS011;5377;43.276;26.930;2024-03-22T01:42:44;9.73;;;7.60;;
10657;SDS011;5377;43.276;26.930;2024-03-22T01:45:11;12.83;;;8.47;;
10657;SDS011;5377;43.276;26.930;2024-03-22T01:47:38;10.30;;;7.40;;
10657;SDS011;5377;43.276;26.930;2024-03-22T01:50:04;10.97;;;7.87;;
10657;SDS011;5377;43.276;26.930;2024-03-22T01:52:33;9.10;;;7.20;;
10657;SDS011;5377;43.276;26.930;2024-03-22T01:54:58;12.73;;;8.67;;
10657;SDS011;5377;43.276;26.930;2024-03-22T01:57:25;12.97;;;8.50;;
10657;SDS011;5377;43.276;26.930;2024-03-22T01:59:52;10.30;;;7.90;;
10657;SDS011;5377;43.276;26.930;2024-03-22T02:02:21;10.07;;;8.60;;
10657;SDS011;5377;43.276;26.930;2024-03-22T02:04:50;10.43;;;7.93;;
10657;SDS011;5377;43.276;26.930;2024-03-22T02:07:16;12.50;;;8.60;;
10657;SDS011;5377;43.276;26.930;2024-03-22T02:09:42;10.83;;;8.10;;
10657;SDS011;5377;43.276;26.930;2024-03-22T02:12:09;10.17;;;8.03;;
10657;SDS011;5377;43.276;26.930;2024-03-22T02:14:35;10.50;;;7.77;;
10657;SDS011;5377;43.276;26.930;2024-03-22T02:17:01;10.07;;;7.90;;
10657;SDS011;5377;43.276;26.930;2024-03-22T02:19:28;10.87;;;7.70;;
10657;SDS011;5377;43.276;26.930;2024-03-22T02:21:55;11.77;;;8.47;;
10657;SDS011;5377;43.276;26.930;2024-03-22T02:24:22;14.13;;;9.63;;
10657;SDS011;5377;43.276;26.930;2024-03-22T02:26:49;11.17;;;8.37;;
10657;SDS011;5377;43.276;26.930;2024-03-22T02:29:14;11.57;;;7.93;;
10657;SDS011;5377;43.276;26.930;2024-03-22T02:31:41;9.77;;;7.63;;
10657;SDS011;5377;43.276;26.930;2024-03-22T02:34:06;10.60;;;8.47;;
10657;SDS011;5377;43.276;26.930;2024-03-22T02:36:33;11.03;;;8.40;;
10657;SDS011;5377;43.276;26.930;2024-03-22T02:38:59;11.13;;;8.47;;
10657;SDS011;5377;43.276;26.930;2024-03-22T02:41:27;9.57;;;8.23;;
10657;SDS011;5377;43.276;26.930;2024-03-22T02:43:52;8.77;;;6.53;;
10657;SDS011;5377;43.276;26.930;2024-03-22T02:46:19;8.97;;;7.50;;
10657;SDS011;5377;43.276;26.930;2024-03-22T02:48:46;9.80;;;7.33;;
10657;SDS011;5377;43.276;26.930;2024-03-22T02:51:11;8.07;;;7.00;;
10657;SDS011;5377;43.276;26.930;2024-03-22T02:53:38;8.67;;;6.13;;
10657;SDS011;5377;43.276;26.930;2024-03-22T02:56:05;13.27;;;8.00;;
10657;SDS011;5377;43.276;26.930;2024-03-22T02:58:32;8.53;;;7.60;;
10657;SDS011;5377;43.276;26.930;2024-03-22T03:01:00;15.70;;;9.77;;
10657;SDS011;5377;43.276;26.930;2024-03-22T03:03:27;10.90;;;7.93;;
10657;SDS011;5377;43.276;26.930;2024-03-22T03:05:54;9.60;;;7.53;;
10657;SDS011;5377;43.276;26.930;2024-03-22T03:08:20;26.20;;;9.37;;
10657;SDS011;5377;43.276;26.930;2024-03-22T03:10:47;15.70;;;9.50;;
10657;SDS011;5377;43.276;26.930;2024-03-22T03:13:13;10.77;;;7.93;;
10657;SDS011;5377;43.276;26.930;2024-03-22T03:15:41;7.60;;;6.77;;
10657;SDS011;5377;43.276;26.930;2024-03-22T03:18:06;9.10;;;7.23;;
10657;SDS011;5377;43.276;26.930;2024-03-22T03:20:33;9.93;;;7.63;;
10657;SDS011;5377;43.276;26.930;2024-03-22T03:22:59;10.73;;;8.00;;
10657;SDS011;5377;43.276;26.930;2024-03-22T03:25:26;10.53;;;7.57;;
10657;SDS011;5377;43.276;26.930;2024-03-22T03:27:52;12.17;;;7.40;;
10657;SDS011;5377;43.276;26.930;2024-03-22T03:30:19;7.63;;;6.83;;
10657;SDS011;5377;43.276;26.930;2024-03-22T03:32:46;10.13;;;6.60;;
10657;SDS011;5377;43.276;26.930;2024-03-22T03:35:13;8.77;;;7.67;;
10657;SDS011;5377;43.276;26.930;2024-03-22T03:37:38;5.93;;;5.27;;
10657;SDS011;5377;43.276;26.930;2024-03-22T03:40:05;7.07;;;6.37;;
10657;SDS011;5377;43.276;26.930;2024-03-22T03:42:31;7.53;;;5.77;;
10657;SDS011;5377;43.276;26.930;2024-03-22T03:44:58;8.03;;;5.43;;
10657;SDS011;5377;43.276;26.930;2024-03-22T03:47:24;8.03;;;5.67;;
10657;SDS011;5377;43.276;26.930;2024-03-22T03:49:52;7.33;;;5.70;;
10657;SDS011;5377;43.276;26.930;2024-03-22T03:52:17;8.27;;;6.40;;
10657;SDS011;5377;43.276;26.930;2024-03-22T03:54:44;9.50;;;6.60;;
10657;SDS011;5377;43.276;26.930;2024-03-22T03:57:10;8.80;;;6.77;;
10657;SDS011;5377;43.276;26.930;2024-03-22T03:59:36;9.70;;;6.67;;
10657;SDS011;5377;43.276;26.930;2024-03-22T04:02:02;12.87;;;8.13;;
10657;SDS011;5377;43.276;26.930;2024-03-22T04:04:29;10.37;;;7.27;;
10657;SDS011;5377;43.276;26.930;2024-03-22T04:06:56;10.13;;;8.10;;
10657;SDS011;5377;43.276;26.930;2024-03-22T04:09:22;8.87;;;7.50;;
10657;SDS011;5377;43.276;26.930;2024-03-22T04:11:48;8.17;;;6.60;;
10657;SDS011;5377;43.276;26.930;2024-03-22T04:14:15;9.60;;;7.73;;
10657;SDS011;5377;43.276;26.930;2024-03-22T04:16:40;9.90;;;7.63;;
10657;SDS011;5377;43.276;26.930;2024-03-22T04:19:07;8.87;;;6.97;;
10657;SDS011;5377;43.276;26.930;2024-03-22T04:21:33;9.07;;;6.60;;
10657;SDS011;5377;43.276;26.930;2024-03-22T04:24:01;12.03;;;9.47;;
10657;SDS011;5377;43.276;26.930;2024-03-22T04:26:27;10.27;;;7.80;;
10657;SDS011;5377;43.276;26.930;2024-03-22T04:28:53;11.80;;;7.60;;
10657;SDS011;5377;43.276;26.930;2024-03-22T04:31:19;12.30;;;8.50;;
10657;SDS011;5377;43.276;26.930;2024-03-22T04:33:46;10.37;;;8.20;;
10657;SDS011;5377;43.276;26.930;2024-03-22T04:36:11;12.33;;;8.57;;
10657;SDS011;5377;43.276;26.930;2024-03-22T04:38:38;13.10;;;7.67;;
10657;SDS011;5377;43.276;26.930;2024-03-22T04:41:06;13.17;;;8.53;;
10657;SDS011;5377;43.276;26.930;2024-03-22T04:43:33;12.70;;;8.70;;
10657;SDS011;5377;43.276;26.930;2024-03-22T04:45:59;16.80;;;8.83;;
10657;SDS011;5377;43.276;26.930;2024-03-22T04:48:26;10.03;;;7.93;;
10657;SDS011;5377;43.276;26.930;2024-03-22T04:50:52;10.33;;;7.67;;
10657;SDS011;5377;43.276;26.930;2024-03-22T04:53:19;11.53;;;7.80;;
10657;SDS011;5377;43.276;26.930;2024-03-22T04:55:46;19.10;;;8.30;;
10657;SDS011;5377;43.276;26.930;2024-03-22T04:58:14;9.97;;;7.30;;
10657;SDS011;5377;43.276;26.930;2024-03-22T05:00:41;11.30;;;7.43;;
10657;SDS011;5377;43.276;26.930;2024-03-22T05:03:07;10.00;;;7.33;;
10657;SDS011;5377;43.276;26.930;2024-03-22T05:05:33;11.03;;;7.30;;
10657;SDS011;5377;43.276;26.930;2024-03-22T05:08:00;11.27;;;7.43;;
10657;SDS011;5377;43.276;26.930;2024-03-22T05:10:26;14.20;;;8.53;;
10657;SDS011;5377;43.276;26.930;2024-03-22T05:12:54;21.10;;;10.27;;
10657;SDS011;5377;43.276;26.930;2024-03-22T05:15:21;21.17;;;11.43;;
10657;SDS011;5377;43.276;26.930;2024-03-22T05:17:48;16.90;;;11.07;;
10657;SDS011;5377;43.276;26.930;2024-03-22T05:20:13;22.17;;;13.27;;
10657;SDS011;5377;43.276;26.930;2024-03-22T05:22:41;20.73;;;14.53;;
10657;SDS011;5377;43.276;26.930;2024-03-22T05:25:07;20.97;;;12.13;;
10657;SDS011;5377;43.276;26.930;2024-03-22T05:27:34;13.13;;;9.33;;
10657;SDS011;5377;43.276;26.930;2024-03-22T05:30:00;12.27;;;10.10;;
10657;SDS011;5377;43.276;26.930;2024-03-22T05:32:30;10.93;;;7.60;;
10657;SDS011;5377;43.276;26.930;2024-03-22T05:34:56;13.80;;;7.90;;
10657;SDS011;5377;43.276;26.930;2024-03-22T05:37:23;10.63;;;6.87;;
10657;SDS011;5377;43.276;26.930;2024-03-22T05:39:48;9.57;;;7.43;;
10657;SDS011;5377;43.276;26.930;2024-03-22T05:42:15;11.77;;;7.13;;
10657;SDS011;5377;43.276;26.930;2024-03-22T05:44:40;11.33;;;7.97;;
10657;SDS011;5377;43.276;26.930;2024-03-22T05:47:07;12.40;;;6.87;;
10657;SDS011;5377;43.276;26.930;2024-03-22T05:49:34;12.87;;;7.77;;
10657;SDS011;5377;43.276;26.930;2024-03-22T05:52:01;10.27;;;6.00;;
10657;SDS011;5377;43.276;26.930;2024-03-22T05:54:26;17.73;;;7.27;;
10657;SDS011;5377;43.276;26.930;2024-03-22T05:56:53;12.20;;;7.47;;
10657;SDS011;5377;43.276;26.930;2024-03-22T05:59:19;11.63;;;9.03;;
10657;SDS011;5377;43.276;26.930;2024-03-22T06:01:45;13.20;;;8.73;;
10657;SDS011;5377;43.276;26.930;2024-03-22T06:04:11;9.33;;;7.50;;
10657;SDS011;5377;43.276;26.930;2024-03-22T06:06:39;8.57;;;7.67;;
10657;SDS011;5377;43.276;26.930;2024-03-22T06:09:05;10.33;;;6.60;;
10657;SDS011;5377;43.276;26.930;2024-03-22T06:11:34;8.93;;;5.93;;
10657;SDS011;5377;43.276;26.930;2024-03-22T06:14:00;11.23;;;6.57;;
10657;SDS011;5377;43.276;26.930;2024-03-22T06:16:27;9.67;;;6.43;;
10657;SDS011;5377;43.276;26.930;2024-03-22T06:18:52;6.33;;;5.53;;
10657;SDS011;5377;43.276;26.930;2024-03-22T06:21:19;7.67;;;5.63;;
10657;SDS011;5377;43.276;26.930;2024-03-22T06:23:49;7.00;;;5.63;;
10657;SDS011;5377;43.276;26.930;2024-03-22T06:26:15;9.87;;;6.73;;
10657;SDS011;5377;43.276;26.930;2024-03-22T06:28:41;9.70;;;7.40;;
10657;SDS011;5377;43.276;26.930;2024-03-22T06:31:08;7.97;;;6.77;;
10657;SDS011;5377;43.276;26.930;2024-03-22T06:33:34;12.20;;;7.53;;
10657;SDS011;5377;43.276;26.930;2024-03-22T06:36:02;12.50;;;6.57;;
10657;SDS011;5377;43.276;26.930;2024-03-22T06:38:28;8.60;;;7.00;;
10657;SDS011;5377;43.276;26.930;2024-03-22T06:40:56;6.87;;;4.87;;
10657;SDS011;5377;43.276;26.930;2024-03-22T06:43:22;7.00;;;5.60;;
10657;SDS011;5377;43.276;26.930;2024-03-22T06:45:49;8.80;;;6.80;;
10657;SDS011;5377;43.276;26.930;2024-03-22T06:48:15;14.20;;;7.80;;
10657;SDS011;5377;43.276;26.930;2024-03-22T06:50:41;9.50;;;7.47;;
10657;SDS011;5377;43.276;26.930;2024-03-22T06:53:07;10.53;;;7.17;;
10657;SDS011;5377;43.276;26.930;2024-03-22T06:55:35;10.40;;;7.27;;
10657;SDS011;5377;43.276;26.930;2024-03-22T06:58:02;13.27;;;7.90;;
10657;SDS011;5377;43.276;26.930;2024-03-22T07:00:29;10.03;;;7.63;;
10657;SDS011;5377;43.276;26.930;2024-03-22T07:02:55;14.37;;;7.90;;
10657;SDS011;5377;43.276;26.930;2024-03-22T07:05:22;10.37;;;6.93;;
10657;SDS011;5377;43.276;26.930;2024-03-22T07:07:48;10.20;;;6.93;;
10657;SDS011;5377;43.276;26.930;2024-03-22T07:10:15;13.77;;;7.17;;
10657;SDS011;5377;43.276;26.930;2024-03-22T07:12:41;8.10;;;5.40;;
10657;SDS011;5377;43.276;26.930;2024-03-22T07:15:09;6.77;;;5.43;;
10657;SDS011;5377;43.276;26.930;2024-03-22T07:17:35;7.17;;;5.57;;
10657;SDS011;5377;43.276;26.930;2024-03-22T07:20:01;7.00;;;6.20;;
10657;SDS011;5377;43.276;26.930;2024-03-22T07:22:28;14.47;;;7.00;;
10657;SDS011;5377;43.276;26.930;2024-03-22T07:24:55;8.60;;;5.87;;
10657;SDS011;5377;43.276;26.930;2024-03-22T07:27:20;8.43;;;6.13;;
10657;SDS011;5377;43.276;26.930;2024-03-22T07:29:47;6.30;;;5.33;;
10657;SDS011;5377;43.276;26.930;2024-03-22T07:32:14;7.80;;;5.70;;
10657;SDS011;5377;43.276;26.930;2024-03-22T07:34:41;8.23;;;6.53;;
10657;SDS011;5377;43.276;26.930;2024-03-22T07:37:07;23.13;;;8.90;;
10657;SDS011;5377;43.276;26.930;2024-03-22T07:39:33;18.67;;;9.53;;
10657;SDS011;5377;43.276;26.930;2024-03-22T07:42:00;10.90;;;7.00;;
10657;SDS011;5377;43.276;26.930;2024-03-22T07:44:28;8.33;;;5.87;;
10657;SDS011;5377;43.276;26.930;2024-03-22T07:46:54;15.37;;;7.10;;
10657;SDS011;5377;43.276;26.930;2024-03-22T07:49:22;6.70;;;6.10;;
10657;SDS011;5377;43.276;26.930;2024-03-22T07:51:47;12.20;;;6.23;;
10657;SDS011;5377;43.276;26.930;2024-03-22T07:54:15;9.23;;;6.67;;
10657;SDS011;5377;43.276;26.930;2024-03-22T07:56:40;7.90;;;6.40;;
10657;SDS011;5377;43.276;26.930;2024-03-22T07:59:07;8.10;;;6.87;;
10657;SDS011;5377;43.276;26.930;2024-03-22T08:01:33;10.15;;;6.95;;
10657;SDS011;5377;43.276;26.930;2024-03-22T08:03:59;30.33;;;10.32;;
10657;SDS011;5377;43.276;26.930;2024-03-22T08:06:26;19.65;;;9.20;;
10657;SDS011;5377;43.276;26.930;2024-03-22T08:08:53;8.25;;;6.20;;
10657;SDS011;5377;43.276;26.930;2024-03-22T08:11:19;10.77;;;6.93;;
10657;SDS011;5377;43.276;26.930;2024-03-22T08:13:46;14.38;;;7.03;;
10657;SDS011;5377;43.276;26.930;2024-03-22T08:16:12;12.15;;;6.78;;
10657;SDS011;5377;43.276;26.930;2024-03-22T08:18:38;8.32;;;6.75;;
10657;SDS011;5377;43.276;26.930;2024-03-22T08:21:04;11.45;;;6.10;;
10657;SDS011;5377;43.276;26.930;2024-03-22T08:23:32;7.57;;;6.00;;
10657;SDS011;5377;43.276;26.930;2024-03-22T08:25:58;25.23;;;8.40;;
10657;SDS011;5377;43.276;26.930;2024-03-22T08:28:24;11.95;;;6.63;;
10657;SDS011;5377;43.276;26.930;2024-03-22T08:30:50;6.30;;;5.68;;
10657;SDS011;5377;43.276;26.930;2024-03-22T08:33:17;9.63;;;6.25;;
10657;SDS011;5377;43.276;26.930;2024-03-22T08:35:43;22.58;;;7.05;;
10657;SDS011;5377;43.276;26.930;2024-03-22T08:38:10;9.07;;;7.25;;
10657;SDS011;5377;43.276;26.930;2024-03-22T08:40:37;10.73;;;6.95;;
10657;SDS011;5377;43.276;26.930;2024-03-22T08:43:05;16.48;;;7.32;;
10657;SDS011;5377;43.276;26.930;2024-03-22T08:45:32;22.58;;;9.57;;
10657;SDS011;5377;43.276;26.930;2024-03-22T08:47:59;15.00;;;7.93;;
10657;SDS011;5377;43.276;26.930;2024-03-22T08:50:25;6.50;;;5.88;;
10657;SDS011;5377;43.276;26.930;2024-03-22T08:52:52;21.70;;;9.95;;
10657;SDS011;5377;43.276;26.930;2024-03-22T08:55:18;20.95;;;7.70;;
10657;SDS011;5377;43.276;26.930;2024-03-22T08:57:46;10.85;;;6.68;;
10657;SDS011;5377;43.276;26.930;2024-03-22T09:00:12;8.82;;;8.00;;
10657;SDS011;5377;43.276;26.930;2024-03-22T09:02:39;10.60;;;7.28;;
10657;SDS011;5377;43.276;26.930;2024-03-22T09:05:05;14.82;;;6.65;;
10657;SDS011;5377;43.276;26.930;2024-03-22T09:07:32;7.72;;;6.30;;
10657;SDS011;5377;43.276;26.930;2024-03-22T09:09:58;13.13;;;6.93;;
10657;SDS011;5377;43.276;26.930;2024-03-22T09:12:24;6.38;;;5.75;;
10657;SDS011;5377;43.276;26.930;2024-03-22T09:14:51;9.85;;;6.35;;
10657;SDS011;5377;43.276;26.930;2024-03-22T09:17:18;12.73;;;7.05;;
10657;SDS011;5377;43.276;26.930;2024-03-22T09:19:44;7.65;;;5.32;;
10657;SDS011;5377;43.276;26.930;2024-03-22T09:22:10;6.05;;;5.47;;
10657;SDS011;5377;43.276;26.930;2024-03-22T09:24:36;7.45;;;4.97;;
10657;SDS011;5377;43.276;26.930;2024-03-22T09:27:03;5.78;;;5.28;;
10657;SDS011;5377;43.276;26.930;2024-03-22T09:29:33;5.63;;;5.07;;
10657;SDS011;5377;43.276;26.930;2024-03-22T09:32:02;8.25;;;4.70;;
10657;SDS011;5377;43.276;26.930;2024-03-22T09:34:27;14.77;;;5.85;;
10657;SDS011;5377;43.276;26.930;2024-03-22T09:36:54;11.30;;;6.43;;
10657;SDS011;5377;43.276;26.930;2024-03-22T09:39:20;5.07;;;3.78;;
10657;SDS011;5377;43.276;26.930;2024-03-22T09:41:47;7.40;;;6.70;;
10657;SDS011;5377;43.276;26.930;2024-03-22T09:44:14;16.25;;;6.60;;
10657;SDS011;5377;43.276;26.930;2024-03-22T09:46:43;5.68;;;5.15;;
10657;SDS011;5377;43.276;26.930;2024-03-22T09:49:10;6.05;;;4.32;;
10657;SDS011;5377;43.276;26.930;2024-03-22T09:51:37;6.50;;;4.35;;
10657;SDS011;5377;43.276;26.930;2024-03-22T09:54:03;4.68;;;4.10;;
10657;SDS011;5377;43.276;26.930;2024-03-22T09:56:30;10.45;;;4.57;;
10657;SDS011;5377;43.276;26.930;2024-03-22T09:58:56;11.25;;;5.85;;
10657;SDS011;5377;43.276;26.930;2024-03-22T10:01:23;20.88;;;5.35;;
10657;SDS011;5377;43.276;26.930;2024-03-22T10:03:49;3.90;;;3.65;;
10657;SDS011;5377;43.276;26.930;2024-03-22T10:06:18;7.57;;;3.38;;
10657;SDS011;5377;43.276;26.930;2024-03-22T10:08:44;3.55;;;2.70;;
10657;SDS011;5377;43.276;26.930;2024-03-22T10:11:10;3.88;;;3.58;;
10657;SDS011;5377;43.276;26.930;2024-03-22T10:13:36;3.50;;;3.30;;
10657;SDS011;5377;43.276;26.930;2024-03-22T10:16:03;9.63;;;4.38;;
10657;SDS011;5377;43.276;26.930;2024-03-22T10:18:29;3.75;;;3.40;;
10657;SDS011;5377;43.276;26.930;2024-03-22T10:20:59;10.10;;;4.97;;
10657;SDS011;5377;43.276;26.930;2024-03-22T10:23:26;4.57;;;2.97;;
10657;SDS011;5377;43.276;26.930;2024-03-22T10:25:53;11.07;;;5.30;;
10657;SDS011;5377;43.276;26.930;2024-03-22T10:28:19;3.22;;;3.03;;
10657;SDS011;5377;43.276;26.930;2024-03-22T10:30:45;4.57;;;3.10;;
10657;SDS011;5377;43.276;26.930;2024-03-22T10:33:13;4.80;;;3.22;;
10657;SDS011;5377;43.276;26.930;2024-03-22T10:35:40;3.50;;;3.10;;
10657;SDS011;5377;43.276;26.930;2024-03-22T10:38:06;5.85;;;3.58;;
10657;SDS011;5377;43.276;26.930;2024-03-22T10:40:37;10.15;;;3.17;;
10657;SDS011;5377;43.276;26.930;2024-03-22T10:43:03;3.85;;;3.45;;
10657;SDS011;5377;43.276;26.930;2024-03-22T10:45:30;7.28;;;4.88;;
10657;SDS011;5377;43.276;26.930;2024-03-22T10:47:56;6.30;;;5.10;;
10657;SDS011;5377;43.276;26.930;2024-03-22T10:50:23;4.15;;;3.55;;
10657;SDS011;5377;43.276;26.930;2024-03-22T10:52:50;7.47;;;4.63;;
10657;SDS011;5377;43.276;26.930;2024-03-22T10:55:18;8.48;;;4.22;;
10657;SDS011;5377;43.276;26.930;2024-03-22T10:57:46;5.63;;;4.95;;
10657;SDS011;5377;43.276;26.930;2024-03-22T11:00:13;3.85;;;3.55;;
10657;SDS011;5377;43.276;26.930;2024-03-22T11:02:42;8.23;;;3.83;;
10657;SDS011;5377;43.276;26.930;2024-03-22T11:05:15;5.68;;;3.53;;
10657;SDS011;5377;43.276;26.930;2024-03-22T11:07:43;15.43;;;4.72;;
10657;SDS011;5377;43.276;26.930;2024-03-22T11:10:11;4.70;;;3.38;;
10657;SDS011;5377;43.276;26.930;2024-03-22T11:12:37;6.90;;;3.53;;
10657;SDS011;5377;43.276;26.930;2024-03-22T11:15:05;30.77;;;8.65;;
10657;SDS011;5377;43.276;26.930;2024-03-22T11:17:31;10.45;;;4.45;;
10657;SDS011;5377;43.276;26.930;2024-03-22T11:19:57;4.70;;;3.83;;
10657;SDS011;5377;43.276;26.930;2024-03-22T11:22:24;6.55;;;4.20;;
10657;SDS011;5377;43.276;26.930;2024-03-22T11:24:51;5.60;;;3.45;;
10657;SDS011;5377;43.276;26.930;2024-03-22T11:27:17;5.97;;;3.72;;
10657;SDS011;5377;43.276;26.930;2024-03-22T11:29:44;12.02;;;4.63;;
10657;SDS011;5377;43.276;26.930;2024-03-22T11:32:13;4.55;;;2.90;;
10657;SDS011;5377;43.276;26.930;2024-03-22T11:34:39;7.93;;;3.38;;
10657;SDS011;5377;43.276;26.930;2024-03-22T11:37:06;4.45;;;3.20;;
10657;SDS011;5377;43.276;26.930;2024-03-22T11:39:35;3.78;;;3.47;;
10657;SDS011;5377;43.276;26.930;2024-03-22T11:42:01;8.65;;;4.75;;
10657;SDS011;5377;43.276;26.930;2024-03-22T11:44:28;3.65;;;3.33;;
10657;SDS011;5377;43.276;26.930;2024-03-22T11:46:54;4.13;;;3.55;;
10657;SDS011;5377;43.276;26.930;2024-03-22T11:49:22;4.13;;;3.60;;
10657;SDS011;5377;43.276;26.930;2024-03-22T11:51:48;3.47;;;3.17;;
10657;SDS011;5377;43.276;26.930;2024-03-22T11:54:14;11.10;;;5.13;;
10657;SDS011;5377;43.276;26.930;2024-03-22T11:56:40;5.53;;;3.35;;
10657;SDS011;5377;43.276;26.930;2024-03-22T11:59:07;4.32;;;3.40;;
10657;SDS011;5377;43.276;26.930;2024-03-22T12:01:32;12.63;;;4.80;;
10657;SDS011;5377;43.276;26.930;2024-03-22T12:03:59;3.67;;;3.00;;
10657;SDS011;5377;43.276;26.930;2024-03-22T12:06:26;21.15;;;5.07;;
10657;SDS011;5377;43.276;26.930;2024-03-22T12:08:53;3.83;;;3.53;;
10657;SDS011;5377;43.276;26.930;2024-03-22T12:11:19;2.70;;;2.45;;
10657;SDS011;5377;43.276;26.930;2024-03-22T12:13:46;13.55;;;3.70;;
10657;SDS011;5377;43.276;26.930;2024-03-22T12:16:13;4.30;;;2.38;;
10657;SDS011;5377;43.276;26.930;2024-03-22T12:18:38;6.28;;;2.22;;
10657;SDS011;5377;43.276;26.930;2024-03-22T12:21:05;5.07;;;2.58;;
10657;SDS011;5377;43.276;26.930;2024-03-22T12:23:32;5.53;;;1.90;;
10657;SDS011;5377;43.276;26.930;2024-03-22T12:25:59;9.70;;;4.45;;
10657;SDS011;5377;43.276;26.930;2024-03-22T12:28:25;9.18;;;2.95;;
10657;SDS011;5377;43.276;26.930;2024-03-22T12:30:51;4.95;;;4.65;;
10657;SDS011;5377;43.276;26.930;2024-03-22T12:33:17;5.40;;;2.35;;
10657;SDS011;5377;43.276;26.930;2024-03-22T12:35:44;2.65;;;2.40;;
10657;SDS011;5377;43.276;26.930;2024-03-22T12:38:09;1.95;;;1.77;;
10657;SDS011;5377;43.276;26.930;2024-03-22T12:40:40;5.18;;;2.75;;
10657;SDS011;5377;43.276;26.930;2024-03-22T12:43:06;14.73;;;3.53;;
10657;SDS011;5377;43.276;26.930;2024-03-22T12:45:32;4.20;;;2.70;;
10657;SDS011;5377;43.276;26.930;2024-03-22T12:47:58;4.07;;;2.10;;
10657;SDS011;5377;43.276;26.930;2024-03-22T12:50:25;3.53;;;2.40;;
10657;SDS011;5377;43.276;26.930;2024-03-22T12:52:51;6.50;;;3.25;;
10657;SDS011;5377;43.276;26.930;2024-03-22T12:55:18;4.22;;;2.63;;
10657;SDS011;5377;43.276;26.930;2024-03-22T12:57:45;7.18;;;2.60;;
10657;SDS011;5377;43.276;26.930;2024-03-22T13:00:12;4.30;;;2.67;;
10657;SDS011;5377;43.276;26.930;2024-03-22T13:02:38;2.53;;;2.30;;
10657;SDS011;5377;43.276;26.930;2024-03-22T13:05:05;4.85;;;2.13;;
10657;SDS011;5377;43.276;26.930;2024-03-22T13:07:31;4.45;;;3.00;;
10657;SDS011;5377;43.276;26.930;2024-03-22T13:09:58;7.13;;;2.70;;
10657;SDS011;5377;43.276;26.930;2024-03-22T13:12:25;6.30;;;3.55;;
10657;SDS011;5377;43.276;26.930;2024-03-22T13:14:53;3.53;;;3.25;;
10657;SDS011;5377;43.276;26.930;2024-03-22T13:17:19;16.33;;;4.50;;
10657;SDS011;5377;43.276;26.930;2024-03-22T13:19:45;7.63;;;3.63;;
10657;SDS011;5377;43.276;26.930;2024-03-22T13:22:11;6.45;;;2.80;;
10657;SDS011;5377;43.276;26.930;2024-03-22T13:24:40;7.70;;;2.10;;
10657;SDS011;5377;43.276;26.930;2024-03-22T13:27:05;8.90;;;3.42;;
10657;SDS011;5377;43.276;26.930;2024-03-22T13:29:33;11.75;;;4.47;;
10657;SDS011;5377;43.276;26.930;2024-03-22T13:32:00;9.63;;;2.97;;
10657;SDS011;5377;43.276;26.930;2024-03-22T13:34:26;5.32;;;3.40;;
10657;SDS011;5377;43.276;26.930;2024-03-22T13:36:53;5.32;;;2.92;;
10657;SDS011;5377;43.276;26.930;2024-03-22T13:39:20;6.22;;;2.75;;
10657;SDS011;5377;43.276;26.930;2024-03-22T13:41:45;6.38;;;2.72;;
10657;SDS011;5377;43.276;26.930;2024-03-22T13:44:12;6.80;;;3.20;;
10657;SDS011;5377;43.276;26.930;2024-03-22T13:46:38;3.00;;;2.80;;
10657;SDS011;5377;43.276;26.930;2024-03-22T13:49:12;7.13;;;3.55;;
10657;SDS011;5377;43.276;26.930;2024-03-22T13:51:38;10.38;;;3.40;;
10657;SDS011;5377;43.276;26.930;2024-03-22T13:54:05;4.60;;;2.80;;
10657;SDS011;5377;43.276;26.930;2024-03-22T13:56:31;3.05;;;2.72;;
10657;SDS011;5377;43.276;26.930;2024-03-22T13:58:58;6.13;;;2.90;;
10657;SDS011;5377;43.276;26.930;2024-03-22T14:01:24;23.73;;;6.00;;
10657;SDS011;5377;43.276;26.930;2024-03-22T14:03:50;14.05;;;4.50;;
10657;SDS011;5377;43.276;26.930;2024-03-22T14:06:17;12.15;;;3.78;;
10657;SDS011;5377;43.276;26.930;2024-03-22T14:08:44;4.95;;;2.53;;
10657;SDS011;5377;43.276;26.930;2024-03-22T14:11:10;4.32;;;3.17;;
10657;SDS011;5377;43.276;26.930;2024-03-22T14:13:37;7.45;;;3.50;;
10657;SDS011;5377;43.276;26.930;2024-03-22T14:16:03;7.18;;;3.20;;
10657;SDS011;5377;43.276;26.930;2024-03-22T14:18:32;20.05;;;4.90;;
10657;SDS011;5377;43.276;26.930;2024-03-22T14:20:58;2.92;;;2.75;;
10657;SDS011;5377;43.276;26.930;2024-03-22T14:23:26;4.68;;;3.58;;
10657;SDS011;5377;43.276;26.930;2024-03-22T14:25:51;9.35;;;4.78;;
10657;SDS011;5377;43.276;26.930;2024-03-22T14:28:18;15.65;;;6.18;;
10657;SDS011;5377;43.276;26.930;2024-03-22T14:30:44;12.93;;;4.22;;
10657;SDS011;5377;43.276;26.930;2024-03-22T14:33:10;5.95;;;4.72;;
10657;SDS011;5377;43.276;26.930;2024-03-22T14:35:36;14.35;;;5.07;;
10657;SDS011;5377;43.276;26.930;2024-03-22T14:38:03;8.73;;;4.47;;